Time;durP1;ratioP1;P1;durP2;ratioP2;P2;SDS_P1;SDS_P2;PMS_P1;PMS_P2;Temp;Humidity;BMP_temperature;BMP_pressure;BME280_temperature;BME280_humidity;BME280_pressure;Samples;Min_cycle;Max_cycle;Signal;HPM_P1;HPM_P2
2022/04/22 00:00:31;;;;;;;5.37;4.27;;;;;;;;;;5007120;28;20629;-62
2022/04/22 00:02:58;;;;;;;5.03;4.43;;;;;;;;;;5006715;28;20208;-62
2022/04/22 00:05:25;;;;;;;7.00;4.67;;;;;;;;;;5006402;28;20259;-62
2022/04/22 00:07:52;;;;;;;5.37;3.87;;;;;;;;;;5006455;28;20239;-62
2022/04/22 00:10:19;;;;;;;7.13;4.70;;;;;;;;;;5006530;28;20630;-62
2022/04/22 00:12:46;;;;;;;5.73;4.73;;;;;;;;;;5006808;28;20204;-62
2022/04/22 00:15:14;;;;;;;7.27;4.13;;;;;;;;;;5006742;28;20282;-62
2022/04/22 00:17:42;;;;;;;7.13;4.67;;;;;;;;;;5006397;28;20253;-63
2022/04/22 00:20:11;;;;;;;7.37;4.70;;;;;;;;;;5006709;28;20305;-63
2022/04/22 00:22:39;;;;;;;6.70;4.80;;;;;;;;;;5006553;28;20220;-63
2022/04/22 00:25:07;;;;;;;8.17;4.97;;;;;;;;;;5006445;28;20291;-62
2022/04/22 00:27:34;;;;;;;8.60;5.10;;;;;;;;;;5005794;28;20737;-62
2022/04/22 00:30:02;;;;;;;6.77;5.10;;;;;;;;;;5006838;28;20291;-60
2022/04/22 00:32:33;;;;;;;6.30;5.03;;;;;;;;;;5006290;28;20671;-60
2022/04/22 00:35:00;;;;;;;8.67;4.80;;;;;;;;;;5006698;28;20260;-61
2022/04/22 00:37:27;;;;;;;8.33;5.50;;;;;;;;;;5005654;28;20231;-60
2022/04/22 00:39:54;;;;;;;9.63;5.33;;;;;;;;;;5006150;28;20216;-60
2022/04/22 00:42:21;;;;;;;7.97;5.37;;;;;;;;;;5005788;28;20258;-61
2022/04/22 00:44:48;;;;;;;10.13;5.47;;;;;;;;;;5006594;28;20216;-60
2022/04/22 00:47:16;;;;;;;12.37;6.10;;;;;;;;;;5006538;28;20686;-60
2022/04/22 00:49:45;;;;;;;7.93;5.47;;;;;;;;;;5005517;28;20284;-60
2022/04/22 00:52:12;;;;;;;6.37;4.73;;;;;;;;;;5006383;28;20254;-60
2022/04/22 00:54:39;;;;;;;8.87;5.33;;;;;;;;;;5009444;28;20205;-60
2022/04/22 00:57:06;;;;;;;8.70;5.73;;;;;;;;;;5010061;28;20225;-60
2022/04/22 00:59:34;;;;;;;7.77;5.37;;;;;;;;;;5010112;28;20209;-60
2022/04/22 01:02:01;;;;;;;7.53;5.63;;;;;;;;;;5005745;28;20300;-60
2022/04/22 01:09:59;;;;;;;10.43;6.20;;;;;;;;;;5010416;28;20220;-60
2022/04/22 01:12:30;;;;;;;10.50;5.37;;;;;;;;;;5010014;28;20215;-60
2022/04/22 01:14:58;;;;;;;8.80;5.60;;;;;;;;;;5009974;28;20263;-60
2022/04/22 01:17:26;;;;;;;10.03;6.13;;;;;;;;;;5009669;28;20225;-60
2022/04/22 01:19:53;;;;;;;9.17;6.20;;;;;;;;;;5009660;28;20584;-60
2022/04/22 01:22:22;;;;;;;9.20;6.20;;;;;;;;;;5008917;28;20282;-60
2022/04/22 01:24:50;;;;;;;9.03;5.53;;;;;;;;;;5009994;28;20722;-60
2022/04/22 01:27:18;;;;;;;10.77;6.30;;;;;;;;;;5005197;28;20235;-60
2022/04/22 01:29:45;;;;;;;10.53;6.10;;;;;;;;;;5010167;28;20208;-60
2022/04/22 01:32:12;;;;;;;9.73;5.57;;;;;;;;;;5009733;28;20308;-60
2022/04/22 01:34:39;;;;;;;10.80;6.23;;;;;;;;;;5009350;28;20251;-60
2022/04/22 01:37:06;;;;;;;10.03;6.73;;;;;;;;;;5009839;28;20229;-62
2022/04/22 01:39:34;;;;;;;11.73;6.57;;;;;;;;;;5009322;28;20217;-61
2022/04/22 01:42:01;;;;;;;11.23;6.17;;;;;;;;;;5009148;28;20211;-62
2022/04/22 01:44:29;;;;;;;9.57;5.63;;;;;;;;;;5008318;28;20273;-61
2022/04/22 01:46:56;;;;;;;7.33;6.00;;;;;;;;;;5009478;28;20208;-62
2022/04/22 01:49:23;;;;;;;11.80;6.33;;;;;;;;;;5009197;28;20217;-62
2022/04/22 01:51:50;;;;;;;10.23;6.03;;;;;;;;;;5009517;28;20746;-62
2022/04/22 01:54:18;;;;;;;11.00;6.43;;;;;;;;;;5009426;28;20259;-62
2022/04/22 01:56:46;;;;;;;12.57;5.93;;;;;;;;;;5009221;28;20216;-62
2022/04/22 01:59:13;;;;;;;10.37;6.30;;;;;;;;;;5009388;28;20304;-62
2022/04/22 02:01:40;;;;;;;12.60;7.20;;;;;;;;;;5009252;28;20554;-61
2022/04/22 02:04:07;;;;;;;13.13;6.63;;;;;;;;;;5009475;28;20209;-62
2022/04/22 02:06:34;;;;;;;11.13;6.63;;;;;;;;;;5009487;28;20225;-62
2022/04/22 02:09:01;;;;;;;11.00;6.97;;;;;;;;;;5008501;28;20237;-62
2022/04/22 02:11:28;;;;;;;12.93;6.77;;;;;;;;;;5008985;28;20217;-60
2022/04/22 02:13:57;;;;;;;12.97;7.03;;;;;;;;;;5009091;28;20593;-60
2022/04/22 02:16:24;;;;;;;11.67;7.07;;;;;;;;;;4996222;28;20214;-60
2022/04/22 02:18:51;;;;;;;12.13;6.30;;;;;;;;;;5006583;28;20220;-60
2022/04/22 02:21:21;;;;;;;12.57;6.50;;;;;;;;;;5010301;28;20631;-60
2022/04/22 02:23:48;;;;;;;9.87;6.33;;;;;;;;;;5010505;28;20298;-60
2022/04/22 02:26:15;;;;;;;13.10;7.70;;;;;;;;;;5010330;28;20209;-60
2022/04/22 02:28:41;;;;;;;9.40;5.93;;;;;;;;;;5010511;28;20212;-60
2022/04/22 02:31:10;;;;;;;12.53;7.50;;;;;;;;;;5010513;28;20236;-60
2022/04/22 02:33:38;;;;;;;13.37;6.63;;;;;;;;;;5010088;28;20285;-60
2022/04/22 02:36:06;;;;;;;10.67;7.50;;;;;;;;;;5010145;28;20212;-60
2022/04/22 02:38:33;;;;;;;13.53;7.70;;;;;;;;;;5009977;28;20244;-60
2022/04/22 02:46:31;;;;;;;10.07;6.90;;;;;;;;;;5007320;28;20251;-60
2022/04/22 02:48:59;;;;;;;13.93;7.03;;;;;;;;;;5010259;28;20216;-59
2022/04/22 02:51:26;;;;;;;10.70;6.70;;;;;;;;;;5006494;28;20205;-60
2022/04/22 02:53:53;;;;;;;12.80;7.33;;;;;;;;;;5009603;28;20209;-60
2022/04/22 02:56:20;;;;;;;12.87;6.87;;;;;;;;;;5009261;28;20206;-60
2022/04/22 02:58:48;;;;;;;11.23;6.77;;;;;;;;;;5009818;28;20229;-60
2022/04/22 03:01:15;;;;;;;9.53;6.50;;;;;;;;;;5009293;28;20201;-60
2022/04/22 03:03:44;;;;;;;16.30;7.33;;;;;;;;;;5009665;28;20722;-60
2022/04/22 03:06:11;;;;;;;13.13;7.70;;;;;;;;;;5009287;28;20263;-60
2022/04/22 03:08:38;;;;;;;12.37;7.83;;;;;;;;;;5009221;28;20314;-60
2022/04/22 03:11:05;;;;;;;13.87;7.73;;;;;;;;;;5009214;28;20212;-60
2022/04/22 03:13:33;;;;;;;17.00;8.37;;;;;;;;;;5009283;28;20204;-60
2022/04/22 03:16:00;;;;;;;11.27;6.83;;;;;;;;;;5009305;28;20241;-60
2022/04/22 03:18:27;;;;;;;15.23;7.63;;;;;;;;;;5009371;28;20307;-60
2022/04/22 03:20:56;;;;;;;16.27;8.23;;;;;;;;;;5009417;28;20236;-60
2022/04/22 03:23:23;;;;;;;11.53;7.53;;;;;;;;;;5009130;28;20205;-60
2022/04/22 03:25:50;;;;;;;11.53;7.60;;;;;;;;;;5009281;28;20679;-60
2022/04/22 03:28:17;;;;;;;12.17;7.50;;;;;;;;;;5008987;28;20212;-60
2022/04/22 03:30:44;;;;;;;12.07;7.20;;;;;;;;;;5009289;28;20216;-61
2022/04/22 03:33:11;;;;;;;11.97;7.50;;;;;;;;;;5009039;28;20205;-60
2022/04/22 03:35:38;;;;;;;11.30;7.37;;;;;;;;;;5009200;28;20205;-60
2022/04/22 03:38:07;;;;;;;13.30;8.20;;;;;;;;;;5007341;28;20225;-60
2022/04/22 03:40:34;;;;;;;14.53;7.90;;;;;;;;;;5013596;28;20293;-60
2022/04/22 03:43:01;;;;;;;14.93;8.40;;;;;;;;;;5015317;28;20201;-60
2022/04/22 03:45:28;;;;;;;13.93;7.70;;;;;;;;;;5017006;28;20204;-60
2022/04/22 03:47:58;;;;;;;13.00;7.37;;;;;;;;;;5015169;28;20197;-60
2022/04/22 03:50:26;;;;;;;14.47;8.07;;;;;;;;;;5016231;28;20223;-61
2022/04/22 03:52:53;;;;;;;14.37;7.30;;;;;;;;;;5016031;28;20319;-60
2022/04/22 03:55:21;;;;;;;15.67;7.63;;;;;;;;;;5004912;28;20747;-60
2022/04/22 04:00:39;;;;;;;14.67;7.93;;;;;;;;;;4995225;28;20212;-61
2022/04/22 04:03:06;;;;;;;12.83;7.30;;;;;;;;;;5004535;28;20205;-61
2022/04/22 04:05:33;;;;;;;15.10;7.43;;;;;;;;;;5014995;28;20228;-60
2022/04/22 04:08:01;;;;;;;17.57;7.73;;;;;;;;;;5018716;28;20236;-61
2022/04/22 04:15:59;;;;;;;12.00;7.33;;;;;;;;;;5014843;28;20254;-60
2022/04/22 04:18:26;;;;;;;16.03;8.53;;;;;;;;;;5016460;28;20725;-61
2022/04/22 04:23:38;;;;;;;15.57;7.70;;;;;;;;;;5014641;28;20211;-61
2022/04/22 04:26:07;;;;;;;15.10;7.33;;;;;;;;;;5016241;28;20208;-61
2022/04/22 04:28:34;;;;;;;17.50;7.73;;;;;;;;;;5015101;28;20628;-61
2022/04/22 04:31:02;;;;;;;10.67;6.50;;;;;;;;;;5018363;28;20212;-61
2022/04/22 04:33:29;;;;;;;18.63;8.20;;;;;;;;;;5010051;28;20262;-60
2022/04/22 04:35:56;;;;;;;14.67;8.40;;;;;;;;;;5014476;28;20300;-60
2022/04/22 04:38:23;;;;;;;14.20;7.27;;;;;;;;;;5016360;28;20237;-61
2022/04/22 04:40:51;;;;;;;14.17;8.27;;;;;;;;;;5014127;28;20223;-61
2022/04/22 04:43:20;;;;;;;13.47;7.27;;;;;;;;;;5015542;28;20920;-61
2022/04/22 04:45:49;;;;;;;12.40;7.00;;;;;;;;;;5014487;28;20205;-61
2022/04/22 04:48:16;;;;;;;14.63;7.47;;;;;;;;;;5014288;28;20212;-61
2022/04/22 04:50:44;;;;;;;14.00;8.07;;;;;;;;;;5016669;28;20666;-61
2022/04/22 04:53:11;;;;;;;10.90;6.20;;;;;;;;;;5011185;28;20302;-61
2022/04/22 04:55:38;;;;;;;16.17;7.80;;;;;;;;;;5016132;28;20310;-61
2022/04/22 04:58:06;;;;;;;13.80;7.97;;;;;;;;;;5012430;28;20236;-61
2022/04/22 05:00:34;;;;;;;13.40;7.43;;;;;;;;;;5014361;28;20205;-61
2022/04/22 05:03:01;;;;;;;14.33;8.43;;;;;;;;;;5018113;28;20284;-61
2022/04/22 05:05:28;;;;;;;12.17;7.17;;;;;;;;;;5012741;28;20225;-61
2022/04/22 05:07:57;;;;;;;8.70;6.07;;;;;;;;;;5017067;28;20228;-61
2022/04/22 05:10:25;;;;;;;17.87;7.47;;;;;;;;;;5019117;28;20291;-61
2022/04/22 05:12:53;;;;;;;7.80;5.77;;;;;;;;;;5012865;28;20513;-61
2022/04/22 05:15:22;;;;;;;12.97;6.83;;;;;;;;;;5015379;28;20201;-61
2022/04/22 05:17:50;;;;;;;16.70;7.90;;;;;;;;;;5016737;28;20319;-61
2022/04/22 05:20:18;;;;;;;11.17;6.87;;;;;;;;;;5016715;28;20202;-61
2022/04/22 05:22:45;;;;;;;13.87;7.67;;;;;;;;;;5017847;28;20220;-61
2022/04/22 05:25:13;;;;;;;14.83;8.30;;;;;;;;;;5016925;28;20296;-61
2022/04/22 05:27:41;;;;;;;8.20;5.20;;;;;;;;;;5013639;28;20823;-61
2022/04/22 05:32:56;;;;;;;10.13;6.33;;;;;;;;;;5012840;28;20610;-61
2022/04/22 05:35:23;;;;;;;5.93;4.57;;;;;;;;;;5015727;28;20208;-61
2022/04/22 05:37:51;;;;;;;10.17;5.10;;;;;;;;;;5013713;28;20223;-61
2022/04/22 05:40:19;;;;;;;8.30;5.70;;;;;;;;;;5018005;28;20221;-61
2022/04/22 05:42:46;;;;;;;7.20;4.60;;;;;;;;;;5017902;28;20220;-61
2022/04/22 05:45:14;;;;;;;3.17;2.83;;;;;;;;;;5020576;28;20216;-61
2022/04/22 05:47:42;;;;;;;12.30;6.43;;;;;;;;;;5018234;28;20197;-61
2022/04/22 05:50:11;;;;;;;10.77;6.13;;;;;;;;;;5018791;28;20295;-61
2022/04/22 05:52:39;;;;;;;12.13;8.07;;;;;;;;;;5019755;28;20208;-61
2022/04/22 05:55:07;;;;;;;2.87;1.87;;;;;;;;;;5017658;28;20235;-61
2022/04/22 05:57:35;;;;;;;10.30;6.57;;;;;;;;;;5014611;28;20209;-62
2022/04/22 06:00:03;;;;;;;9.37;6.43;;;;;;;;;;5011197;28;20216;-61
2022/04/22 06:02:31;;;;;;;4.10;3.13;;;;;;;;;;5010978;28;20293;-62
2022/04/22 06:04:58;;;;;;;10.87;7.10;;;;;;;;;;5010054;28;20228;-62
2022/04/22 06:07:26;;;;;;;9.27;5.63;;;;;;;;;;5010823;28;20240;-61
2022/04/22 06:12:38;;;;;;;4.50;3.63;;;;;;;;;;5004762;28;21000;-62
2022/04/22 06:15:05;;;;;;;8.37;5.63;;;;;;;;;;5010589;28;20224;-62
2022/04/22 06:17:33;;;;;;;5.73;4.13;;;;;;;;;;5009580;28;20221;-62
2022/04/22 06:20:00;;;;;;;7.23;5.57;;;;;;;;;;5010625;28;20679;-62
2022/04/22 06:22:30;;;;;;;8.53;4.73;;;;;;;;;;5010836;28;20217;-62
2022/04/22 06:24:57;;;;;;;8.67;6.43;;;;;;;;;;5010661;28;20221;-61
2022/04/22 06:27:25;;;;;;;3.50;3.20;;;;;;;;;;5010617;28;20352;-62
2022/04/22 06:29:52;;;;;;;8.90;5.90;;;;;;;;;;5010889;28;20332;-62
2022/04/22 06:32:21;;;;;;;6.27;5.63;;;;;;;;;;5008635;28;20212;-62
2022/04/22 06:34:48;;;;;;;5.37;3.17;;;;;;;;;;5010811;28;20271;-62
2022/04/22 06:37:15;;;;;;;5.70;4.07;;;;;;;;;;5010730;28;20348;-62
2022/04/22 06:47:59;;;;;;;5.60;4.80;;;;;;;;;;5010586;28;20247;-62
2022/04/22 06:50:26;;;;;;;5.87;4.63;;;;;;;;;;5010561;28;20267;-62
2022/04/22 06:52:53;;;;;;;3.13;2.83;;;;;;;;;;5009530;28;20211;-62
2022/04/22 06:55:22;;;;;;;6.47;4.57;;;;;;;;;;5009369;28;20197;-62
2022/04/22 06:57:50;;;;;;;4.97;3.63;;;;;;;;;;5010261;28;20209;-62
2022/04/22 07:00:18;;;;;;;5.20;3.70;;;;;;;;;;5010297;28;20203;-62
2022/04/22 07:02:45;;;;;;;3.17;2.63;;;;;;;;;;5010880;28;20625;-61
2022/04/22 07:05:12;;;;;;;6.63;4.73;;;;;;;;;;5008121;28;20229;-61
2022/04/22 07:07:39;;;;;;;4.90;4.37;;;;;;;;;;5009729;28;20237;-62
2022/04/22 07:10:07;;;;;;;3.23;2.80;;;;;;;;;;5010227;28;20224;-62
2022/04/22 07:12:36;;;;;;;5.20;3.93;;;;;;;;;;5010032;28;20209;-62
2022/04/22 07:15:04;;;;;;;3.43;3.00;;;;;;;;;;5010210;28;20217;-62
2022/04/22 07:17:32;;;;;;;3.87;3.50;;;;;;;;;;5010306;28;20810;-60
2022/04/22 07:20:00;;;;;;;4.37;3.97;;;;;;;;;;5009875;28;20228;-60
2022/04/22 07:22:27;;;;;;;4.10;3.70;;;;;;;;;;5001495;28;20217;-68
2022/04/22 07:24:54;;;;;;;4.13;3.40;;;;;;;;;;5008958;28;20296;-61
2022/04/22 07:27:25;;;;;;;4.37;3.73;;;;;;;;;;5009415;28;20213;-61
2022/04/22 07:29:54;;;;;;;5.00;4.43;;;;;;;;;;5004838;28;20201;-61
2022/04/22 07:32:22;;;;;;;3.40;3.07;;;;;;;;;;5009306;28;20212;-61
2022/04/22 07:34:49;;;;;;;4.33;3.20;;;;;;;;;;5009555;28;20622;-61
2022/04/22 07:37:16;;;;;;;3.63;1.97;;;;;;;;;;5009734;28;20287;-61
2022/04/22 07:39:43;;;;;;;5.07;4.20;;;;;;;;;;5010265;28;20233;-61
2022/04/22 07:42:15;;;;;;;2.73;2.53;;;;;;;;;;5008280;28;20416;-61
2022/04/22 07:47:31;;;;;;;3.63;3.33;;;;;;;;;;5008956;28;20713;-64
2022/04/22 07:49:58;;;;;;;4.53;4.00;;;;;;;;;;5008909;28;20268;-60
2022/04/22 07:52:25;;;;;;;4.17;3.87;;;;;;;;;;5008483;28;20263;-60
2022/04/22 07:54:52;;;;;;;2.75;2.60;;;;;;;;;;5008516;28;20224;-59
2022/04/22 07:57:21;;;;;;;4.13;3.73;;;;;;;;;;5007967;28;20224;-60
2022/04/22 07:59:49;;;;;;;4.97;3.77;;;;;;;;;;5008673;28;20813;-60
2022/04/22 08:02:16;;;;;;;2.93;2.63;;;;;;;;;;5007093;28;20572;-60
2022/04/22 08:04:45;;;;;;;3.50;3.20;;;;;;;;;;5008965;28;20209;-59
2022/04/22 08:07:12;;;;;;;4.40;4.00;;;;;;;;;;5007982;28;20224;-59
2022/04/22 08:09:39;;;;;;;5.90;3.93;;;;;;;;;;5014407;28;20211;-60
2022/04/22 08:12:07;;;;;;;3.53;3.20;;;;;;;;;;5009914;28;20678;-60
2022/04/22 08:14:34;;;;;;;4.10;3.70;;;;;;;;;;5008592;28;20318;-60
2022/04/22 08:17:01;;;;;;;3.47;3.27;;;;;;;;;;5008428;28;20223;-60
2022/04/22 08:19:29;;;;;;;3.20;2.90;;;;;;;;;;5008227;28;20232;-60
2022/04/22 08:21:57;;;;;;;4.07;3.57;;;;;;;;;;5008240;28;20213;-60
2022/04/22 08:24:25;;;;;;;3.35;3.15;;;;;;;;;;5008359;28;20297;-60
2022/04/22 08:26:52;;;;;;;4.30;3.73;;;;;;;;;;5004035;28;20886;-60
2022/04/22 08:29:19;;;;;;;4.33;3.93;;;;;;;;;;5007804;28;20366;-60
2022/04/22 08:31:46;;;;;;;3.60;3.30;;;;;;;;;;5007805;28;20209;-61
2022/04/22 08:34:13;;;;;;;3.50;3.30;;;;;;;;;;5006425;28;20208;-60
2022/04/22 08:36:40;;;;;;;3.38;3.08;;;;;;;;;;5007579;28;20282;-61
2022/04/22 08:39:09;;;;;;;3.07;2.87;;;;;;;;;;5006222;28;20236;-61
2022/04/22 08:41:37;;;;;;;5.75;3.25;;;;;;;;;;5007758;28;20235;-61
2022/04/22 08:44:06;;;;;;;3.73;3.40;;;;;;;;;;5008448;28;20307;-61
2022/04/22 08:52:04;;;;;;;4.17;3.00;;;;;;;;;;5008250;28;20292;-63
2022/04/22 08:54:35;;;;;;;3.75;3.45;;;;;;;;;;5008646;28;20722;-61
2022/04/22 08:57:03;;;;;;;3.20;3.00;;;;;;;;;;5005861;28;20224;-61
2022/04/22 08:59:30;;;;;;;3.45;3.25;;;;;;;;;;5008283;28;20221;-61
2022/04/22 09:01:57;;;;;;;2.58;2.45;;;;;;;;;;5008138;28;20634;-61
2022/04/22 09:04:26;;;;;;;3.10;2.90;;;;;;;;;;5008039;28;20209;-61
2022/04/22 09:06:54;;;;;;;3.77;3.47;;;;;;;;;;5005701;28;20314;-61
2022/04/22 09:09:21;;;;;;;3.17;2.97;;;;;;;;;;4997846;28;20256;-61
2022/04/22 09:11:50;;;;;;;3.53;3.22;;;;;;;;;;4997436;28;20209;-61
2022/04/22 09:14:19;;;;;;;3.25;2.95;;;;;;;;;;5008998;28;20320;-61
2022/04/22 09:16:46;;;;;;;3.05;2.85;;;;;;;;;;5011546;28;20308;-61
2022/04/22 09:19:18;;;;;;;2.97;2.78;;;;;;;;;;5011635;28;20229;-61
2022/04/22 09:21:46;;;;;;;2.72;2.53;;;;;;;;;;5012254;28;20201;-64
2022/04/22 09:24:14;;;;;;;3.92;3.72;;;;;;;;;;5009971;28;20446;-61
2022/04/22 09:26:41;;;;;;;2.60;2.50;;;;;;;;;;5011567;28;20292;-61
2022/04/22 09:29:11;;;;;;;3.40;3.10;;;;;;;;;;5011446;28;20212;-60
2022/04/22 09:31:47;;;;;;;2.80;2.60;;;;;;;;;;5010684;28;20201;-64
2022/04/22 09:34:15;;;;;;;2.65;2.30;;;;;;;;;;5011437;28;20201;-61
2022/04/22 09:44:59;;;;;;;3.38;3.17;;;;;;;;;;4992512;28;20565;-62
2022/04/22 09:47:27;;;;;;;3.40;3.10;;;;;;;;;;5010174;28;20209;-61
2022/04/22 09:49:54;;;;;;;2.47;2.30;;;;;;;;;;5011699;28;20212;-60
2022/04/22 09:52:28;;;;;;;3.30;3.00;;;;;;;;;;5010887;28;20634;-63
2022/04/22 09:54:58;;;;;;;2.90;2.70;;;;;;;;;;5010737;28;20212;-61
2022/04/22 09:57:25;;;;;;;2.25;2.15;;;;;;;;;;5010041;28;20216;-62
2022/04/22 10:00:03;;;;;;;3.67;3.38;;;;;;;;;;5014044;28;20224;-62
2022/04/22 10:02:31;;;;;;;3.28;3.08;;;;;;;;;;4992292;28;20275;-61
2022/04/22 10:04:59;;;;;;;2.72;2.63;;;;;;;;;;5004418;28;20340;-62
2022/04/22 10:07:32;;;;;;;2.63;2.53;;;;;;;;;;5004677;28;20731;-69
2022/04/22 10:10:01;;;;;;;4.50;2.75;;;;;;;;;;5011349;28;20217;-69
2022/04/22 10:12:28;;;;;;;2.97;2.88;;;;;;;;;;5010780;28;20690;-62
2022/04/22 10:15:00;;;;;;;3.10;2.90;;;;;;;;;;5011213;28;20295;-61
2022/04/22 10:17:28;;;;;;;2.80;2.70;;;;;;;;;;5011170;28;20209;-61
2022/04/22 10:19:56;;;;;;;3.15;2.90;;;;;;;;;;5012116;28;20221;-60
2022/04/22 10:22:25;;;;;;;2.67;2.50;;;;;;;;;;5020632;28;20694;-60
2022/04/22 10:24:52;;;;;;;3.17;2.97;;;;;;;;;;5024550;28;20227;-61
2022/04/22 10:27:21;;;;;;;3.35;3.05;;;;;;;;;;5008245;28;20197;-60
2022/04/22 10:29:49;;;;;;;3.10;2.90;;;;;;;;;;5014393;28;20299;-61
2022/04/22 10:32:17;;;;;;;2.42;2.33;;;;;;;;;;5010626;28;20946;-62
2022/04/22 10:34:46;;;;;;;2.67;2.05;;;;;;;;;;5014398;28;20213;-62
2022/04/22 10:37:17;;;;;;;3.22;3.00;;;;;;;;;;5010912;28;20296;-60
2022/04/22 10:39:52;;;;;;;2.80;2.60;;;;;;;;;;5008413;28;20229;-61
2022/04/22 10:42:19;;;;;;;2.58;2.40;;;;;;;;;;5011611;28;20245;-61
2022/04/22 10:47:40;;;;;;;3.58;3.38;;;;;;;;;;5015524;28;20204;-61
2022/04/22 10:50:22;;;;;;;3.22;3.05;;;;;;;;;;5015885;28;20897;-62
2022/04/22 10:53:02;;;;;;;2.92;2.72;;;;;;;;;;5008258;28;20212;-62
2022/04/22 10:55:30;;;;;;;2.72;2.53;;;;;;;;;;5000344;28;20213;-59
2022/04/22 10:58:12;;;;;;;1.77;1.67;;;;;;;;;;5002399;28;20209;-59
2022/04/22 11:00:41;;;;;;;3.50;3.08;;;;;;;;;;4986377;28;20221;-59
2022/04/22 11:03:15;;;;;;;2.97;2.78;;;;;;;;;;5004478;28;20212;-59
2022/04/22 11:05:46;;;;;;;3.10;2.90;;;;;;;;;;5017156;28;20242;-59
2022/04/22 11:08:28;;;;;;;3.10;2.90;;;;;;;;;;5016663;28;20256;-59
2022/04/22 11:10:59;;;;;;;3.67;3.40;;;;;;;;;;5015270;28;20204;-59
2022/04/22 11:13:28;;;;;;;2.90;2.80;;;;;;;;;;5017851;28;20299;-59
2022/04/22 11:15:58;;;;;;;2.92;2.75;;;;;;;;;;5015331;28;20636;-59
2022/04/22 11:18:25;;;;;;;2.65;2.55;;;;;;;;;;5016520;28;20197;-59
2022/04/22 11:20:53;;;;;;;2.53;2.42;;;;;;;;;;5012328;28;20244;-59
2022/04/22 11:23:20;;;;;;;3.25;3.00;;;;;;;;;;5013522;28;20207;-60
2022/04/22 11:25:51;;;;;;;3.10;2.88;;;;;;;;;;5013736;28;20213;-59
2022/04/22 11:28:19;;;;;;;2.30;2.20;;;;;;;;;;5016939;28;20201;-60
2022/04/22 11:30:46;;;;;;;3.08;2.97;;;;;;;;;;5017392;28;20655;-63
2022/04/22 11:33:14;;;;;;;1.85;1.83;;;;;;;;;;5017407;28;20206;-59
2022/04/22 11:35:42;;;;;;;2.25;2.15;;;;;;;;;;5017728;28;20620;-61
2022/04/22 11:38:09;;;;;;;2.40;2.30;;;;;;;;;;5018378;28;21011;-61
2022/04/22 11:40:37;;;;;;;2.38;2.28;;;;;;;;;;5009595;28;20231;-59
2022/04/22 11:43:10;;;;;;;2.58;1.92;;;;;;;;;;5015464;28;20205;-59
2022/04/22 11:45:38;;;;;;;2.38;2.22;;;;;;;;;;5016507;28;20234;-60
2022/04/22 11:48:08;;;;;;;2.63;2.42;;;;;;;;;;5015626;28;20200;-61
2022/04/22 11:50:38;;;;;;;2.63;2.53;;;;;;;;;;5016851;28;20241;-58
2022/04/22 11:53:08;;;;;;;2.47;2.38;;;;;;;;;;5014411;28;20290;-59
2022/04/22 11:55:36;;;;;;;2.03;1.98;;;;;;;;;;5016508;28;20722;-61
2022/04/22 11:58:03;;;;;;;2.50;2.15;;;;;;;;;;5006610;28;20267;-59
2022/04/22 12:05:57;;;;;;;2.20;2.10;;;;;;;;;;4965971;28;20218;-59
2022/04/22 12:08:25;;;;;;;3.15;2.40;;;;;;;;;;5003665;28;20336;-59
2022/04/22 12:10:52;;;;;;;2.30;2.20;;;;;;;;;;5007859;28;20951;-59
2022/04/22 12:13:19;;;;;;;2.65;2.53;;;;;;;;;;5007851;28;20212;-59
2022/04/22 12:15:48;;;;;;;2.22;2.08;;;;;;;;;;5008019;28;20223;-59
2022/04/22 12:18:28;;;;;;;2.38;2.17;;;;;;;;;;5009613;28;20267;-60
2022/04/22 12:20:55;;;;;;;3.67;2.28;;;;;;;;;;5008693;28;20317;-61
2022/04/22 12:23:22;;;;;;;2.67;2.58;;;;;;;;;;5007960;28;20228;-60
2022/04/22 12:25:56;;;;;;;2.15;2.05;;;;;;;;;;5008831;28;20201;-61
2022/04/22 12:28:24;;;;;;;2.60;2.42;;;;;;;;;;5008513;28;20219;-59
2022/04/22 12:30:53;;;;;;;2.67;2.47;;;;;;;;;;5008712;28;20255;-61
2022/04/22 12:33:21;;;;;;;2.10;2.10;;;;;;;;;;5006314;28;20205;-61
2022/04/22 12:35:49;;;;;;;1.70;1.60;;;;;;;;;;5000581;28;20670;-61
2022/04/22 12:38:17;;;;;;;2.67;2.28;;;;;;;;;;5007433;28;20205;-61
2022/04/22 12:40:48;;;;;;;2.17;2.08;;;;;;;;;;5007015;28;20737;-61
2022/04/22 12:43:22;;;;;;;2.53;2.40;;;;;;;;;;5004050;28;20209;-61
2022/04/22 12:54:12;;;;;;;2.13;1.88;;;;;;;;;;5004131;28;20212;-62
2022/04/22 12:56:40;;;;;;;1.52;1.52;;;;;;;;;;5007094;28;20213;-60
2022/04/22 12:59:07;;;;;;;1.75;1.65;;;;;;;;;;5006564;28;20913;-60
2022/04/22 13:01:37;;;;;;;2.83;2.53;;;;;;;;;;5007012;28;20233;-60
2022/04/22 13:04:06;;;;;;;3.10;2.90;;;;;;;;;;5004443;28;20236;-61
2022/04/22 13:06:37;;;;;;;1.88;1.77;;;;;;;;;;5005811;28;20649;-70
2022/04/22 13:09:04;;;;;;;2.40;2.30;;;;;;;;;;5005561;28;20331;-61
2022/04/22 13:11:31;;;;;;;2.05;1.98;;;;;;;;;;5023678;28;20600;-59
2022/04/22 13:13:58;;;;;;;1.48;1.48;;;;;;;;;;4996002;28;20205;-60
2022/04/22 13:16:25;;;;;;;1.98;1.88;;;;;;;;;;5007167;28;20224;-60
2022/04/22 13:18:52;;;;;;;2.38;2.20;;;;;;;;;;5005736;28;20264;-61
2022/04/22 13:21:21;;;;;;;1.30;1.30;;;;;;;;;;5006249;28;20228;-61
2022/04/22 13:23:48;;;;;;;2.03;1.92;;;;;;;;;;5004785;28;20197;-60
2022/04/22 13:26:15;;;;;;;1.65;1.63;;;;;;;;;;5006511;28;20213;-60
2022/04/22 13:28:42;;;;;;;2.05;1.95;;;;;;;;;;5004300;28;20209;-60
2022/04/22 13:31:09;;;;;;;2.40;2.30;;;;;;;;;;5003796;28;20312;-60
2022/04/22 13:33:36;;;;;;;2.30;2.17;;;;;;;;;;5005012;28;20291;-59
2022/04/22 13:36:04;;;;;;;2.75;2.08;;;;;;;;;;5005140;28;20716;-60
2022/04/22 13:38:33;;;;;;;2.70;2.55;;;;;;;;;;4996640;28;20711;-60
2022/04/22 13:41:01;;;;;;;2.30;2.20;;;;;;;;;;5005316;28;21019;-60
2022/04/22 13:43:30;;;;;;;1.85;1.77;;;;;;;;;;5015180;28;20208;-60
2022/04/22 13:54:13;;;;;;;2.60;2.40;;;;;;;;;;5003941;28;20232;-60
2022/04/22 13:56:40;;;;;;;2.13;2.03;;;;;;;;;;5005620;28;20594;-61
2022/04/22 13:59:07;;;;;;;1.85;1.85;;;;;;;;;;5006059;28;20201;-60
2022/04/22 14:01:34;;;;;;;1.67;1.60;;;;;;;;;;5008143;28;20730;-60
2022/04/22 14:04:02;;;;;;;2.47;2.40;;;;;;;;;;5010102;28;20717;-59
2022/04/22 14:06:29;;;;;;;2.53;2.42;;;;;;;;;;5009736;28;20848;-59
2022/04/22 14:08:56;;;;;;;2.10;2.00;;;;;;;;;;5005320;28;20240;-59
2022/04/22 14:11:27;;;;;;;2.78;2.67;;;;;;;;;;5009192;28;20263;-60
2022/04/22 14:13:54;;;;;;;2.50;2.40;;;;;;;;;;5009871;28;20221;-62
2022/04/22 14:16:21;;;;;;;2.15;2.05;;;;;;;;;;5009576;28;20209;-61
2022/04/22 14:18:48;;;;;;;2.15;2.05;;;;;;;;;;5009260;28;20217;-59
2022/04/22 14:21:15;;;;;;;3.75;2.13;;;;;;;;;;5009769;28;20243;-59
2022/04/22 14:23:42;;;;;;;2.22;2.13;;;;;;;;;;5009244;28;20667;-61
2022/04/22 14:26:12;;;;;;;2.38;2.28;;;;;;;;;;5009523;28;20216;-60
2022/04/22 14:28:40;;;;;;;2.20;2.10;;;;;;;;;;5009062;28;20706;-60
2022/04/22 14:31:08;;;;;;;2.20;2.10;;;;;;;;;;5009090;28;20204;-59
2022/04/22 14:33:35;;;;;;;1.85;1.85;;;;;;;;;;5008058;28;20550;-60
2022/04/22 14:36:03;;;;;;;1.83;1.73;;;;;;;;;;5008996;28;20205;-60
2022/04/22 14:38:30;;;;;;;2.20;2.10;;;;;;;;;;5008637;28;20292;-60
2022/04/22 14:40:57;;;;;;;1.67;1.65;;;;;;;;;;5007962;28;20691;-59
2022/04/22 14:43:24;;;;;;;2.17;2.17;;;;;;;;;;5009584;28;20220;-60
2022/04/22 14:45:52;;;;;;;1.90;1.80;;;;;;;;;;5009351;28;20209;-60
2022/04/22 14:48:19;;;;;;;1.95;1.85;;;;;;;;;;5008929;28;20217;-60
2022/04/22 14:50:46;;;;;;;2.40;2.20;;;;;;;;;;5009022;28;20201;-60
2022/04/22 14:53:13;;;;;;;1.90;1.80;;;;;;;;;;5009095;28;20224;-60
2022/04/22 14:55:40;;;;;;;1.48;1.38;;;;;;;;;;5008832;28;20205;-60
2022/04/22 14:58:07;;;;;;;1.38;1.38;;;;;;;;;;5007380;28;20201;-60
2022/04/22 15:00:35;;;;;;;2.28;2.17;;;;;;;;;;5007008;28;20224;-60
2022/04/22 15:03:03;;;;;;;1.65;1.65;;;;;;;;;;5004798;28;20203;-60
2022/04/22 15:05:30;;;;;;;1.25;1.25;;;;;;;;;;5008232;28;20233;-60
2022/04/22 15:07:58;;;;;;;1.92;1.83;;;;;;;;;;5008162;28;20612;-60
2022/04/22 15:10:26;;;;;;;1.38;1.38;;;;;;;;;;5008591;28;20212;-61
2022/04/22 15:12:54;;;;;;;1.95;1.85;;;;;;;;;;5002962;28;20212;-60
2022/04/22 15:15:21;;;;;;;2.30;2.20;;;;;;;;;;4999151;28;20371;-61
2022/04/22 15:26:05;;;;;;;1.83;1.83;;;;;;;;;;4994879;28;20222;-60
2022/04/22 15:28:32;;;;;;;4.43;2.38;;;;;;;;;;5007893;28;20283;-61
2022/04/22 15:31:12;;;;;;;2.17;2.15;;;;;;;;;;5008238;28;20251;-61
2022/04/22 15:33:39;;;;;;;1.60;1.50;;;;;;;;;;5003499;28;20220;-61
2022/04/22 15:36:07;;;;;;;2.30;2.20;;;;;;;;;;5001010;28;20216;-61
2022/04/22 15:38:35;;;;;;;2.15;1.42;;;;;;;;;;5006660;28;20267;-61
2022/04/22 15:41:02;;;;;;;2.15;2.05;;;;;;;;;;5006821;28;20616;-61
2022/04/22 15:43:29;;;;;;;2.10;2.10;;;;;;;;;;5007041;28;20243;-61
2022/04/22 15:45:56;;;;;;;2.63;1.92;;;;;;;;;;5007613;28;20221;-62
2022/04/22 15:48:23;;;;;;;2.25;2.15;;;;;;;;;;5006563;28;20220;-59
2022/04/22 15:50:50;;;;;;;2.15;1.95;;;;;;;;;;5006505;28;20217;-60
2022/04/22 15:53:19;;;;;;;2.08;2.05;;;;;;;;;;5006854;28;20240;-59
2022/04/22 15:55:46;;;;;;;3.00;2.50;;;;;;;;;;5005881;28;20297;-60
2022/04/22 15:58:13;;;;;;;2.72;2.63;;;;;;;;;;5006307;28;20217;-59
2022/04/22 16:00:40;;;;;;;2.67;2.42;;;;;;;;;;5006776;28;20591;-61
2022/04/22 16:03:09;;;;;;;2.67;2.47;;;;;;;;;;5006769;28;20204;-60
2022/04/22 16:05:36;;;;;;;2.85;2.20;;;;;;;;;;5006352;28;20232;-60
2022/04/22 16:08:04;;;;;;;1.77;1.77;;;;;;;;;;5005926;28;20344;-59
2022/04/22 16:10:32;;;;;;;2.05;2.05;;;;;;;;;;5007240;28;20216;-60